Time;durP1;ratioP1;P1;durP2;ratioP2;P2;SDS_P1;SDS_P2;PMS_P1;PMS_P2;Temp;Humidity;BMP_temperature;BMP_pressure;BME280_temperature;BME280_humidity;BME280_pressure;Samples;Min_cycle;Max_cycle;Signal;HPM_P1;HPM_P2
2022/01/23 00:01:43;;;;;;;32.22;19.15;;;;;;;;;;5013369;28;92368;-68
2022/01/23 00:04:10;;;;;;;37.03;18.40;;;;;;;;;;5013146;28;92656;-68
2022/01/23 00:06:36;;;;;;;28.83;17.20;;;;;;;;;;5012013;28;92466;-69
2022/01/23 00:09:03;;;;;;;30.75;17.48;;;;;;;;;;5013426;28;92585;-69
2022/01/23 00:11:31;;;;;;;28.95;18.08;;;;;;;;;;5011113;28;94810;-69
2022/01/23 00:19:11;;;;;;;36.28;18.38;;;;;;;;;;5009148;28;94373;-69
2022/01/23 00:21:39;;;;;;;39.80;17.98;;;;;;;;;;5013497;28;92437;-69
2022/01/23 00:32:06;;;;;;;32.38;17.23;;;;;;;;;;4980694;28;92488;-69
2022/01/23 00:34:33;;;;;;;33.83;17.95;;;;;;;;;;5008935;28;93706;-69
2022/01/23 00:36:59;;;;;;;38.30;17.75;;;;;;;;;;5010835;28;94652;-69
2022/01/23 00:39:25;;;;;;;29.73;16.90;;;;;;;;;;5015184;28;94299;-69
2022/01/23 00:41:52;;;;;;;27.10;17.75;;;;;;;;;;5012949;28;92432;-69
2022/01/23 00:44:18;;;;;;;32.17;17.38;;;;;;;;;;5012377;28;92749;-69
2022/01/23 00:46:50;;;;;;;27.17;17.65;;;;;;;;;;5012048;28;92381;-69
2022/01/23 00:49:25;;;;;;;25.90;16.52;;;;;;;;;;5012411;28;92399;-69
2022/01/23 00:51:52;;;;;;;22.95;16.38;;;;;;;;;;5013451;28;94269;-69
2022/01/23 00:54:19;;;;;;;35.65;16.42;;;;;;;;;;5013698;28;92480;-69
2022/01/23 00:56:45;;;;;;;34.17;16.73;;;;;;;;;;5012693;28;92532;-69
2022/01/23 00:59:12;;;;;;;27.55;15.85;;;;;;;;;;5012161;28;92991;-69
2022/01/23 01:01:38;;;;;;;32.03;17.50;;;;;;;;;;5013727;28;95970;-69
2022/01/23 01:04:05;;;;;;;24.50;16.42;;;;;;;;;;5012179;28;95587;-69
2022/01/23 01:06:31;;;;;;;34.38;16.20;;;;;;;;;;5011857;28;93626;-69
2022/01/23 01:09:02;;;;;;;29.35;15.90;;;;;;;;;;5011682;28;92704;-69
2022/01/23 01:14:23;;;;;;;22.40;14.65;;;;;;;;;;5012160;28;92523;-69
2022/01/23 01:30:59;;;;;;;23.27;14.63;;;;;;;;;;4968538;28;92472;-69
2022/01/23 01:36:48;;;;;;;24.30;14.55;;;;;;;;;;4947815;28;92413;-69
2022/01/23 01:39:19;;;;;;;22.50;14.70;;;;;;;;;;4932777;28;92784;-69
2022/01/23 01:41:46;;;;;;;22.65;14.88;;;;;;;;;;4930940;28;92462;-69
2022/01/23 01:44:13;;;;;;;27.75;15.18;;;;;;;;;;4939081;28;93680;-69
2022/01/23 01:46:39;;;;;;;25.45;13.88;;;;;;;;;;4950131;28;91742;-69
2022/01/23 01:49:06;;;;;;;25.67;14.43;;;;;;;;;;4936272;28;93390;-69
2022/01/23 01:51:33;;;;;;;25.80;14.07;;;;;;;;;;4931988;28;92425;-69
2022/01/23 01:54:11;;;;;;;21.50;13.80;;;;;;;;;;4914362;28;94936;-69
2022/01/23 01:56:47;;;;;;;24.92;13.20;;;;;;;;;;4930124;28;92457;-69
2022/01/23 02:09:32;;;;;;;27.40;13.57;;;;;;;;;;5014258;28;92465;-69
2022/01/23 02:53:13;;;;;;;27.50;15.32;;;;;;;;;;4971527;28;92694;-69
2022/01/23 02:55:40;;;;;;;27.75;16.40;;;;;;;;;;4971737;28;92908;-69
2022/01/23 02:58:09;;;;;;;29.98;17.25;;;;;;;;;;4974519;28;92550;-70
2022/01/23 03:00:47;;;;;;;27.92;16.38;;;;;;;;;;4971661;28;94013;-69
2022/01/23 03:03:21;;;;;;;30.70;17.35;;;;;;;;;;4971587;28;92513;-69
2022/01/23 03:06:11;;;;;;;29.23;17.40;;;;;;;;;;4972900;28;91967;-69
2022/01/23 03:32:40;;;;;;;32.00;17.23;;;;;;;;;;5014195;28;91858;-69
2022/01/23 03:35:06;;;;;;;28.17;18.25;;;;;;;;;;5013130;28;92427;-69
2022/01/23 03:37:33;;;;;;;26.60;17.02;;;;;;;;;;5013603;28;93388;-69
2022/01/23 03:39:59;;;;;;;32.75;18.33;;;;;;;;;;5011900;28;94929;-69
2022/01/23 03:42:26;;;;;;;28.75;17.10;;;;;;;;;;5013938;28;94338;-70
2022/01/23 03:45:19;;;;;;;24.73;15.85;;;;;;;;;;5017252;28;93127;-69
2022/01/23 03:50:34;;;;;;;23.77;15.88;;;;;;;;;;4953297;28;93205;-69
2022/01/23 03:53:00;;;;;;;30.70;16.42;;;;;;;;;;4966465;28;93853;-69
2022/01/23 03:55:27;;;;;;;24.98;15.48;;;;;;;;;;4956088;28;93607;-69
2022/01/23 03:57:53;;;;;;;32.38;15.68;;;;;;;;;;4953749;28;92512;-69
2022/01/23 04:00:19;;;;;;;20.25;15.40;;;;;;;;;;4968884;28;92478;-69
2022/01/23 04:02:45;;;;;;;25.15;14.05;;;;;;;;;;4959496;28;93109;-69
2022/01/23 04:05:12;;;;;;;21.85;14.68;;;;;;;;;;4967820;28;95950;-69
2022/01/23 04:07:38;;;;;;;26.58;15.52;;;;;;;;;;4972811;28;92528;-69
2022/01/23 04:10:05;;;;;;;23.35;14.65;;;;;;;;;;4951464;28;93471;-69
2022/01/23 04:12:48;;;;;;;25.55;15.20;;;;;;;;;;4951599;28;92420;-69
2022/01/23 04:15:24;;;;;;;31.80;14.90;;;;;;;;;;4951661;28;93042;-69
2022/01/23 04:34:11;;;;;;;31.00;14.88;;;;;;;;;;5012601;28;92346;-69
2022/01/23 04:48:48;;;;;;;20.13;13.40;;;;;;;;;;5012301;28;92434;-69
2022/01/23 04:59:34;;;;;;;28.50;13.10;;;;;;;;;;5014817;28;92631;-69
2022/01/23 05:04:29;;;;;;;20.38;13.30;;;;;;;;;;5012449;28;92424;-69
2022/01/23 05:07:01;;;;;;;22.30;12.95;;;;;;;;;;5012227;28;93261;-69
2022/01/23 05:09:28;;;;;;;20.13;12.85;;;;;;;;;;5012462;28;92808;-69
2022/01/23 05:11:56;;;;;;;23.13;14.38;;;;;;;;;;5012472;28;92465;-69
2022/01/23 05:14:29;;;;;;;22.38;12.70;;;;;;;;;;5012614;28;92292;-69
2022/01/23 05:16:56;;;;;;;27.50;13.50;;;;;;;;;;5015964;28;92374;-69
2022/01/23 05:19:23;;;;;;;21.02;13.27;;;;;;;;;;5012006;28;92907;-69
2022/01/23 05:22:16;;;;;;;17.00;13.02;;;;;;;;;;5012279;28;93787;-69
2022/01/23 05:24:49;;;;;;;19.90;12.55;;;;;;;;;;5010484;28;94787;-69
2022/01/23 05:27:15;;;;;;;20.92;13.00;;;;;;;;;;5012190;28;93961;-69
2022/01/23 05:29:42;;;;;;;20.45;12.50;;;;;;;;;;5011783;28;93441;-69
2022/01/23 05:32:11;;;;;;;18.80;12.50;;;;;;;;;;5011975;28;92482;-69
2022/01/23 05:34:38;;;;;;;19.95;12.35;;;;;;;;;;5011827;28;93193;-69
2022/01/23 05:37:04;;;;;;;22.42;12.90;;;;;;;;;;5011018;28;92501;-69
2022/01/23 05:39:33;;;;;;;19.08;12.05;;;;;;;;;;5015140;28;93492;-69
2022/01/23 05:42:06;;;;;;;20.05;12.63;;;;;;;;;;5012071;28;93307;-69
2022/01/23 05:44:33;;;;;;;22.63;12.20;;;;;;;;;;5008966;28;92423;-69
2022/01/23 05:46:59;;;;;;;18.95;12.68;;;;;;;;;;5011757;28;92371;-70
2022/01/23 05:49:26;;;;;;;27.13;13.55;;;;;;;;;;5009307;28;95164;-69
2022/01/23 05:51:53;;;;;;;16.60;13.30;;;;;;;;;;5012264;28;92359;-69
2022/01/23 05:54:19;;;;;;;19.58;12.98;;;;;;;;;;5011658;28;94319;-69
2022/01/23 05:56:46;;;;;;;17.92;12.40;;;;;;;;;;5011642;28;94468;-69
2022/01/23 05:59:13;;;;;;;26.95;13.70;;;;;;;;;;5011275;28;92487;-69
2022/01/23 06:01:39;;;;;;;19.00;11.93;;;;;;;;;;5014680;28;95144;-69
2022/01/23 06:04:06;;;;;;;19.85;12.30;;;;;;;;;;5010864;28;92613;-69
2022/01/23 06:06:32;;;;;;;17.48;11.82;;;;;;;;;;5011222;28;93306;-70
2022/01/23 06:08:58;;;;;;;20.33;11.77;;;;;;;;;;5010618;28;93336;-70
2022/01/23 06:11:25;;;;;;;17.85;12.52;;;;;;;;;;5010165;28;92612;-70
2022/01/23 06:13:51;;;;;;;20.33;12.02;;;;;;;;;;5009236;28;95305;-70
2022/01/23 06:16:17;;;;;;;15.48;11.75;;;;;;;;;;5011236;28;93905;-70
2022/01/23 06:18:45;;;;;;;13.48;10.50;;;;;;;;;;5010986;28;92980;-70
2022/01/23 06:21:16;;;;;;;16.63;11.82;;;;;;;;;;5014649;28;93245;-70
2022/01/23 06:23:42;;;;;;;20.63;12.30;;;;;;;;;;5010741;28;92592;-70
2022/01/23 06:26:08;;;;;;;16.77;12.05;;;;;;;;;;5011197;28;93058;-70
2022/01/23 06:28:43;;;;;;;18.70;12.20;;;;;;;;;;5010930;28;93831;-70
2022/01/23 06:31:10;;;;;;;19.35;13.18;;;;;;;;;;5011694;28;91950;-70
2022/01/23 06:33:36;;;;;;;17.40;11.80;;;;;;;;;;5010577;28;92571;-70
2022/01/23 06:36:07;;;;;;;20.92;13.50;;;;;;;;;;5010605;28;92399;-70
2022/01/23 06:38:33;;;;;;;17.13;11.10;;;;;;;;;;5009443;28;94880;-70
2022/01/23 06:40:59;;;;;;;17.88;12.27;;;;;;;;;;5009985;28;94030;-70
2022/01/23 06:43:25;;;;;;;16.13;12.32;;;;;;;;;;5013459;28;93114;-70
2022/01/23 06:45:52;;;;;;;21.00;13.35;;;;;;;;;;5011645;28;93154;-70
2022/01/23 06:48:18;;;;;;;19.35;11.82;;;;;;;;;;5010605;28;93420;-70
2022/01/23 06:50:44;;;;;;;20.08;13.07;;;;;;;;;;5011367;28;92444;-70
2022/01/23 06:53:11;;;;;;;19.83;12.90;;;;;;;;;;5010513;28;92320;-70
2022/01/23 06:55:37;;;;;;;15.05;11.63;;;;;;;;;;5010443;28;91623;-70
2022/01/23 06:58:03;;;;;;;17.95;12.38;;;;;;;;;;5011020;28;92407;-70
2022/01/23 07:00:32;;;;;;;18.48;12.27;;;;;;;;;;5010260;28;93194;-70
2022/01/23 07:02:59;;;;;;;20.10;12.30;;;;;;;;;;5008474;28;95789;-70
2022/01/23 07:05:26;;;;;;;21.02;12.63;;;;;;;;;;5013202;28;92787;-70
2022/01/23 07:07:52;;;;;;;17.45;12.32;;;;;;;;;;5011073;28;93285;-70
2022/01/23 07:10:21;;;;;;;22.35;12.02;;;;;;;;;;5013654;28;92401;-70
2022/01/23 07:12:47;;;;;;;18.85;11.43;;;;;;;;;;5013999;28;92360;-71
2022/01/23 07:15:13;;;;;;;14.93;11.07;;;;;;;;;;5013205;28;92360;-70
2022/01/23 07:17:41;;;;;;;22.58;13.20;;;;;;;;;;5013730;28;92672;-70
2022/01/23 07:20:07;;;;;;;22.05;12.80;;;;;;;;;;5014077;28;91950;-70
2022/01/23 07:22:34;;;;;;;18.08;12.60;;;;;;;;;;5014032;28;93425;-70
2022/01/23 07:25:02;;;;;;;17.75;12.85;;;;;;;;;;5010609;28;92430;-70
2022/01/23 07:27:34;;;;;;;19.48;12.05;;;;;;;;;;5015165;28;94875;-70
2022/01/23 07:30:00;;;;;;;20.20;13.60;;;;;;;;;;5013824;28;93136;-70
2022/01/23 07:32:26;;;;;;;20.25;12.80;;;;;;;;;;5012911;28;92400;-70
2022/01/23 07:34:53;;;;;;;20.48;13.35;;;;;;;;;;5013994;28;92422;-70
2022/01/23 07:37:19;;;;;;;17.63;12.90;;;;;;;;;;5013470;28;92466;-70
2022/01/23 07:39:45;;;;;;;23.95;14.85;;;;;;;;;;5013951;28;93138;-70
2022/01/23 07:42:11;;;;;;;24.92;14.68;;;;;;;;;;5013590;28;93761;-70
2022/01/23 07:44:38;;;;;;;26.35;17.25;;;;;;;;;;5014390;28;91766;-70
2022/01/23 07:47:04;;;;;;;28.92;14.75;;;;;;;;;;5012725;28;92473;-70
2022/01/23 07:49:30;;;;;;;21.90;14.00;;;;;;;;;;5016593;28;93255;-70
2022/01/23 07:51:57;;;;;;;22.88;13.18;;;;;;;;;;5010556;28;94896;-70
2022/01/23 07:54:23;;;;;;;19.88;12.63;;;;;;;;;;5013293;28;93636;-70
2022/01/23 07:56:49;;;;;;;18.30;12.57;;;;;;;;;;5013729;28;92387;-70
2022/01/23 07:59:16;;;;;;;19.13;12.35;;;;;;;;;;5013641;28;92319;-70
2022/01/23 08:01:42;;;;;;;24.13;13.35;;;;;;;;;;5012740;28;92535;-70
2022/01/23 08:04:08;;;;;;;19.52;12.90;;;;;;;;;;5012817;28;92462;-69
2022/01/23 08:06:43;;;;;;;17.67;12.23;;;;;;;;;;5012714;28;92928;-70
2022/01/23 08:09:10;;;;;;;17.92;13.38;;;;;;;;;;5013843;28;91799;-69
2022/01/23 08:11:36;;;;;;;20.67;12.43;;;;;;;;;;5016702;28;92396;-70
2022/01/23 08:14:02;;;;;;;22.15;14.50;;;;;;;;;;5012837;28;94853;-70
2022/01/23 08:16:29;;;;;;;17.58;12.68;;;;;;;;;;5010400;28;94911;-70
2022/01/23 08:18:55;;;;;;;21.80;13.57;;;;;;;;;;5016622;28;94090;-69
2022/01/23 08:21:22;;;;;;;23.35;13.35;;;;;;;;;;5012763;28;92391;-71
2022/01/23 08:23:52;;;;;;;24.92;12.93;;;;;;;;;;5011269;28;92722;-71
2022/01/23 08:26:20;;;;;;;22.48;13.75;;;;;;;;;;5004904;28;94084;-70
2022/01/23 08:28:46;;;;;;;27.27;14.85;;;;;;;;;;5015329;28;93900;-71
2022/01/23 08:31:12;;;;;;;19.35;13.23;;;;;;;;;;5035921;27;92497;-72
2022/01/23 08:33:39;;;;;;;21.30;13.32;;;;;;;;;;5033544;27;92018;-71
2022/01/23 08:36:05;;;;;;;17.92;12.95;;;;;;;;;;5022249;27;92464;-70
2022/01/23 08:38:31;;;;;;;22.20;14.25;;;;;;;;;;5012756;28;92832;-71
2022/01/23 08:43:42;;;;;;;20.63;14.30;;;;;;;;;;5012232;28;92524;-70
2022/01/23 08:46:09;;;;;;;19.45;12.95;;;;;;;;;;5012161;28;93232;-70
2022/01/23 08:48:35;;;;;;;22.33;13.75;;;;;;;;;;4996061;28;93492;-71
2022/01/23 08:51:03;;;;;;;22.98;13.77;;;;;;;;;;5000247;28;92362;-70
2022/01/23 08:53:29;;;;;;;22.48;13.80;;;;;;;;;;5015767;28;93153;-69
2022/01/23 08:55:55;;;;;;;20.77;13.90;;;;;;;;;;5012453;28;92397;-70
2022/01/23 08:58:21;;;;;;;21.48;13.25;;;;;;;;;;5012879;28;94307;-70
2022/01/23 09:00:48;;;;;;;22.70;14.25;;;;;;;;;;5012901;28;93455;-70
2022/01/23 09:03:15;;;;;;;16.45;11.93;;;;;;;;;;5012871;28;92522;-70
2022/01/23 09:05:41;;;;;;;23.65;13.57;;;;;;;;;;5011049;28;94826;-70
2022/01/23 09:08:07;;;;;;;17.77;12.75;;;;;;;;;;5011749;28;94386;-70
2022/01/23 09:10:41;;;;;;;23.83;13.52;;;;;;;;;;5012164;28;92627;-70
2022/01/23 09:13:16;;;;;;;16.65;11.93;;;;;;;;;;5012939;28;92938;-70
2022/01/23 09:15:44;;;;;;;23.33;12.85;;;;;;;;;;5014905;28;93651;-70
2022/01/23 09:18:10;;;;;;;17.38;11.38;;;;;;;;;;5011644;28;93257;-70
2022/01/23 09:20:36;;;;;;;24.35;13.65;;;;;;;;;;5012281;28;92619;-69
2022/01/23 09:23:03;;;;;;;19.00;13.23;;;;;;;;;;5012718;28;91621;-70
2022/01/23 09:25:29;;;;;;;19.40;13.23;;;;;;;;;;5012263;28;92529;-70
2022/01/23 09:27:57;;;;;;;24.90;14.32;;;;;;;;;;5011138;28;92852;-70
2022/01/23 09:30:23;;;;;;;20.65;13.27;;;;;;;;;;5010397;28;94839;-70
2022/01/23 09:32:50;;;;;;;18.60;13.35;;;;;;;;;;5011370;28;94262;-70
2022/01/23 09:35:17;;;;;;;26.27;14.88;;;;;;;;;;5011940;28;92316;-70
2022/01/23 09:37:44;;;;;;;22.35;13.95;;;;;;;;;;5014564;28;92555;-70
2022/01/23 09:40:11;;;;;;;24.52;14.43;;;;;;;;;;5011836;28;93405;-70
2022/01/23 09:42:42;;;;;;;26.65;15.05;;;;;;;;;;5010642;28;92435;-70
2022/01/23 09:45:10;;;;;;;22.13;15.75;;;;;;;;;;5012145;28;92671;-70
2022/01/23 09:47:37;;;;;;;28.30;15.63;;;;;;;;;;5011513;28;92738;-70
2022/01/23 09:50:05;;;;;;;29.83;15.25;;;;;;;;;;5011358;28;92481;-70
2022/01/23 09:52:33;;;;;;;26.85;16.48;;;;;;;;;;5012348;28;92341;-70
2022/01/23 09:55:06;;;;;;;22.98;14.52;;;;;;;;;;5009939;28;96918;-70
2022/01/23 09:57:34;;;;;;;22.08;14.05;;;;;;;;;;5011047;28;92519;-70
2022/01/23 10:00:01;;;;;;;23.45;15.38;;;;;;;;;;5029818;28;92414;-70
2022/01/23 10:02:28;;;;;;;23.15;15.07;;;;;;;;;;5011982;28;92729;-69
2022/01/23 10:05:00;;;;;;;24.35;15.30;;;;;;;;;;5011924;28;92411;-70
2022/01/23 10:07:27;;;;;;;22.48;14.82;;;;;;;;;;5011654;28;92866;-67
2022/01/23 10:10:06;;;;;;;23.63;13.93;;;;;;;;;;5012221;28;92929;-70
2022/01/23 10:12:32;;;;;;;20.77;13.10;;;;;;;;;;5012050;28;94026;-70
2022/01/23 10:14:59;;;;;;;21.63;12.25;;;;;;;;;;5011201;28;93242;-70
2022/01/23 10:17:25;;;;;;;18.33;12.18;;;;;;;;;;5010785;28;93573;-70
2022/01/23 10:19:51;;;;;;;16.65;11.43;;;;;;;;;;5008808;28;95124;-70
2022/01/23 10:22:18;;;;;;;21.63;12.52;;;;;;;;;;5015230;28;93371;-70
2022/01/23 10:24:44;;;;;;;16.80;11.10;;;;;;;;;;5010992;28;93160;-70
2022/01/23 10:27:10;;;;;;;19.45;11.55;;;;;;;;;;5019150;28;94110;-70
2022/01/23 10:29:43;;;;;;;15.07;10.02;;;;;;;;;;5010579;28;92409;-70
2022/01/23 10:32:18;;;;;;;15.77;11.00;;;;;;;;;;5011498;28;92455;-70
2022/01/23 10:34:46;;;;;;;15.73;10.85;;;;;;;;;;5011580;28;93246;-70
2022/01/23 10:37:22;;;;;;;20.70;12.23;;;;;;;;;;5011500;28;91611;-70
2022/01/23 10:39:49;;;;;;;22.13;13.23;;;;;;;;;;5011822;28;92554;-70
2022/01/23 10:42:25;;;;;;;14.70;9.50;;;;;;;;;;5013329;28;92498;-70
2022/01/23 10:47:47;;;;;;;13.82;9.48;;;;;;;;;;5014402;28;93384;-70
2022/01/23 10:50:14;;;;;;;15.63;9.80;;;;;;;;;;5014954;28;92593;-70
2022/01/23 10:52:48;;;;;;;14.35;9.20;;;;;;;;;;5015287;28;92994;-71
2022/01/23 10:55:20;;;;;;;14.73;9.60;;;;;;;;;;5014585;28;92392;-71
2022/01/23 10:57:48;;;;;;;15.10;10.07;;;;;;;;;;5015241;28;92446;-67
2022/01/23 11:00:25;;;;;;;17.50;10.07;;;;;;;;;;5013980;28;92376;-66
2022/01/23 11:02:52;;;;;;;18.80;10.75;;;;;;;;;;5015496;28;92811;-69
2022/01/23 11:05:19;;;;;;;13.50;9.80;;;;;;;;;;5018135;28;92411;-67
2022/01/23 11:07:46;;;;;;;16.25;9.77;;;;;;;;;;5014399;28;92479;-69
2022/01/23 11:10:15;;;;;;;16.33;9.88;;;;;;;;;;5011696;28;94939;-68
2022/01/23 11:18:07;;;;;;;17.58;10.27;;;;;;;;;;5014036;28;92443;-68
2022/01/23 11:20:38;;;;;;;15.60;10.15;;;;;;;;;;5013566;28;94993;-68
2022/01/23 11:23:13;;;;;;;10.00;8.02;;;;;;;;;;5012008;28;93296;-69
2022/01/23 11:25:41;;;;;;;16.92;8.68;;;;;;;;;;5007512;28;92470;-68
2022/01/23 11:28:08;;;;;;;13.75;8.02;;;;;;;;;;5018231;28;94361;-68
2022/01/23 11:30:35;;;;;;;13.40;9.15;;;;;;;;;;5014577;28;92395;-68
2022/01/23 11:33:03;;;;;;;14.63;9.20;;;;;;;;;;5014438;28;93037;-68
2022/01/23 11:35:30;;;;;;;17.33;10.43;;;;;;;;;;5013181;28;95848;-68
2022/01/23 11:37:57;;;;;;;14.40;9.55;;;;;;;;;;5013099;28;92867;-69
2022/01/23 11:53:58;;;;;;;14.70;9.40;;;;;;;;;;5014314;28;91875;-69
2022/01/23 11:56:24;;;;;;;15.02;8.75;;;;;;;;;;5013956;28;93254;-69
2022/01/23 11:58:52;;;;;;;16.38;10.43;;;;;;;;;;5014606;28;92368;-69
2022/01/23 12:01:19;;;;;;;12.85;8.95;;;;;;;;;;5011266;28;94746;-69
2022/01/23 12:04:04;;;;;;;18.98;10.77;;;;;;;;;;5012416;28;92318;-69
2022/01/23 12:06:31;;;;;;;17.30;9.40;;;;;;;;;;5013667;28;92268;-69
2022/01/23 12:09:09;;;;;;;13.40;10.25;;;;;;;;;;5013626;28;92281;-70
2022/01/23 12:11:48;;;;;;;14.25;9.70;;;;;;;;;;5013092;28;93304;-69
2022/01/23 12:17:01;;;;;;;15.55;9.07;;;;;;;;;;5014711;28;93438;-69
2022/01/23 12:19:29;;;;;;;13.23;9.15;;;;;;;;;;5013728;28;91744;-69
2022/01/23 12:21:58;;;;;;;19.15;9.80;;;;;;;;;;5014288;28;92552;-69
2022/01/23 12:24:25;;;;;;;11.25;8.25;;;;;;;;;;5012957;28;92560;-69
2022/01/23 12:27:09;;;;;;;14.50;8.93;;;;;;;;;;5013393;28;95092;-70
2022/01/23 12:29:35;;;;;;;11.77;7.93;;;;;;;;;;5012024;28;95660;-69
2022/01/23 12:32:15;;;;;;;12.10;8.02;;;;;;;;;;5012137;28;92888;-69
2022/01/23 12:34:49;;;;;;;10.15;7.88;;;;;;;;;;5013415;28;93351;-68
2022/01/23 12:37:15;;;;;;;10.23;7.35;;;;;;;;;;5011794;28;92409;-67
2022/01/23 12:39:42;;;;;;;12.20;7.07;;;;;;;;;;5017887;28;93369;-68
2022/01/23 12:42:08;;;;;;;10.73;7.22;;;;;;;;;;5013306;28;94160;-69
2022/01/23 12:44:36;;;;;;;36.53;18.92;;;;;;;;;;5020044;28;91778;-69
2022/01/23 12:47:03;;;;;;;23.98;12.75;;;;;;;;;;5033134;27;92488;-69
2022/01/23 12:49:38;;;;;;;13.10;8.02;;;;;;;;;;5023811;28;93238;-69
2022/01/23 12:52:07;;;;;;;10.85;7.70;;;;;;;;;;5011690;28;94803;-69
2022/01/23 12:54:35;;;;;;;10.75;7.05;;;;;;;;;;5013631;28;92354;-69
2022/01/23 12:57:05;;;;;;;12.43;7.82;;;;;;;;;;5016050;28;93236;-69
2022/01/23 12:59:34;;;;;;;10.88;7.18;;;;;;;;;;5012820;28;92473;-69
2022/01/23 13:02:07;;;;;;;8.27;6.60;;;;;;;;;;5007583;28;94269;-69
2022/01/23 13:04:35;;;;;;;12.98;7.80;;;;;;;;;;5012888;28;93467;-69
2022/01/23 13:07:05;;;;;;;12.18;7.90;;;;;;;;;;5016527;27;92613;-69
2022/01/23 13:09:45;;;;;;;12.43;7.78;;;;;;;;;;5013760;28;93158;-69
2022/01/23 13:17:45;;;;;;;11.25;8.20;;;;;;;;;;5011715;28;95108;-70
2022/01/23 13:31:43;;;;;;;15.55;9.90;;;;;;;;;;4951043;28;92458;-70
2022/01/23 13:34:19;;;;;;;18.35;9.45;;;;;;;;;;4950605;28;92356;-70
2022/01/23 13:36:54;;;;;;;12.68;9.30;;;;;;;;;;4955813;28;92382;-70
2022/01/23 13:39:21;;;;;;;12.43;8.90;;;;;;;;;;4954637;28;92824;-70
2022/01/23 13:42:03;;;;;;;14.60;9.45;;;;;;;;;;4952416;28;92551;-70
2022/01/23 13:53:08;;;;;;;22.80;11.80;;;;;;;;;;4970188;28;92352;-70
2022/01/23 14:01:16;;;;;;;14.20;9.65;;;;;;;;;;5000955;28;93355;-70
2022/01/23 14:03:43;;;;;;;13.85;8.77;;;;;;;;;;5012191;28;91679;-70
2022/01/23 14:06:10;;;;;;;14.18;9.40;;;;;;;;;;5012560;28;92453;-70
2022/01/23 14:08:36;;;;;;;13.55;8.60;;;;;;;;;;5015318;28;94285;-69
2022/01/23 14:11:02;;;;;;;12.80;9.40;;;;;;;;;;5017986;28;94912;-70
2022/01/23 14:13:29;;;;;;;15.50;9.68;;;;;;;;;;5025851;28;96066;-70
2022/01/23 14:15:55;;;;;;;14.48;9.13;;;;;;;;;;5011869;28;92338;-71
2022/01/23 14:18:26;;;;;;;19.52;13.20;;;;;;;;;;5002189;28;92419;-70
2022/01/23 14:20:55;;;;;;;15.18;9.70;;;;;;;;;;4996031;28;93294;-70
2022/01/23 14:23:21;;;;;;;19.08;10.35;;;;;;;;;;5012310;28;92354;-71
2022/01/23 14:25:56;;;;;;;16.73;9.60;;;;;;;;;;5004777;28;92476;-71
2022/01/23 14:28:25;;;;;;;12.77;8.55;;;;;;;;;;5012908;28;93216;-69
2022/01/23 14:30:55;;;;;;;14.73;9.90;;;;;;;;;;5015729;28;94253;-70
2022/01/23 14:33:23;;;;;;;17.83;10.65;;;;;;;;;;5013062;28;92989;-69
2022/01/23 14:35:53;;;;;;;18.33;9.63;;;;;;;;;;5009361;28;95627;-71
2022/01/23 14:38:22;;;;;;;14.02;10.98;;;;;;;;;;5011173;28;92306;-70
2022/01/23 14:41:02;;;;;;;14.70;9.32;;;;;;;;;;5021914;28;93087;-70
2022/01/23 14:43:39;;;;;;;16.55;9.63;;;;;;;;;;5007825;28;93317;-70
2022/01/23 14:46:10;;;;;;;16.20;9.63;;;;;;;;;;5009705;28;93261;-70
2022/01/23 14:48:40;;;;;;;17.33;10.68;;;;;;;;;;5011427;28;93380;-70
2022/01/23 14:51:07;;;;;;;;;;;;;;;;;;5011371;28;92524;-70
2022/01/23 14:53:34;;;;;;;16.33;9.75;;;;;;;;;;5014074;28;93141;-70
2022/01/23 14:56:02;;;;;;;15.02;9.73;;;;;;;;;;5014537;28;93312;-70
2022/01/23 14:58:29;;;;;;;13.00;8.82;;;;;;;;;;5021127;27;92700;-70
2022/01/23 15:00:56;;;;;;;22.05;10.60;;;;;;;;;;5009868;28;95477;-70
2022/01/23 15:03:24;;;;;;;14.25;8.80;;;;;;;;;;5020994;28;92339;-70
2022/01/23 15:05:51;;;;;;;14.93;10.38;;;;;;;;;;5016372;28;92566;-71
2022/01/23 15:08:21;;;;;;;13.73;9.77;;;;;;;;;;5018465;27;93083;-70
2022/01/23 15:10:48;;;;;;;17.08;11.15;;;;;;;;;;5003770;28;93191;-70
2022/01/23 15:13:15;;;;;;;16.08;10.23;;;;;;;;;;4999468;28;92467;-70
2022/01/23 15:15:42;;;;;;;20.45;10.45;;;;;;;;;;5010216;28;92535;-70
2022/01/23 15:18:08;;;;;;;16.92;9.70;;;;;;;;;;5013224;27;91877;-70
2022/01/23 15:20:35;;;;;;;13.43;9.93;;;;;;;;;;5015495;28;92310;-70
2022/01/23 15:23:02;;;;;;;17.98;11.07;;;;;;;;;;5011536;28;92297;-70
2022/01/23 15:25:29;;;;;;;16.90;10.23;;;;;;;;;;5003078;28;94857;-70
2022/01/23 15:27:55;;;;;;;17.42;11.27;;;;;;;;;;5014231;28;94440;-70
2022/01/23 15:30:23;;;;;;;15.75;10.32;;;;;;;;;;5012237;28;93291;-70
2022/01/23 15:32:51;;;;;;;13.63;9.57;;;;;;;;;;5022156;28;92520;-70
2022/01/23 15:35:18;;;;;;;16.75;10.07;;;;;;;;;;5025221;27;92999;-70
2022/01/23 15:37:44;;;;;;;15.35;10.20;;;;;;;;;;5012583;28;92574;-70
2022/01/23 15:40:11;;;;;;;17.67;11.48;;;;;;;;;;5012454;28;92428;-70
2022/01/23 15:42:41;;;;;;;18.35;10.95;;;;;;;;;;5015364;28;93316;-70
2022/01/23 15:45:09;;;;;;;18.17;11.52;;;;;;;;;;5016362;28;92949;-69
2022/01/23 15:47:35;;;;;;;17.40;10.43;;;;;;;;;;5019030;27;92460;-70
2022/01/23 15:50:03;;;;;;;16.27;10.85;;;;;;;;;;5012013;28;94718;-70
2022/01/23 15:52:29;;;;;;;19.52;11.27;;;;;;;;;;5013389;28;92488;-70
2022/01/23 15:54:55;;;;;;;21.50;11.35;;;;;;;;;;5008400;27;93326;-69
2022/01/23 15:57:22;;;;;;;22.25;11.65;;;;;;;;;;4996975;28;92391;-69
2022/01/23 15:59:48;;;;;;;19.45;10.93;;;;;;;;;;4993780;28;94228;-69
2022/01/23 16:02:14;;;;;;;19.20;11.02;;;;;;;;;;4993591;28;93202;-68
2022/01/23 16:04:41;;;;;;;19.15;12.10;;;;;;;;;;5011493;28;92363;-68
2022/01/23 16:07:09;;;;;;;19.52;11.48;;;;;;;;;;5013323;28;91836;-71
2022/01/23 16:09:35;;;;;;;24.00;14.85;;;;;;;;;;5014965;28;92511;-70
2022/01/23 16:12:02;;;;;;;31.13;16.77;;;;;;;;;;5013588;28;92380;-71
2022/01/23 16:14:48;;;;;;;23.67;13.00;;;;;;;;;;5020706;28;96148;-70
2022/01/23 16:17:14;;;;;;;17.98;12.63;;;;;;;;;;5011354;28;93497;-70
2022/01/23 16:19:41;;;;;;;23.85;12.70;;;;;;;;;;5013537;28;92315;-70
2022/01/23 16:22:07;;;;;;;20.90;12.10;;;;;;;;;;5013420;28;94273;-71
2022/01/23 16:24:33;;;;;;;20.85;12.80;;;;;;;;;;5012932;28;92460;-69
2022/01/23 16:27:00;;;;;;;22.67;12.95;;;;;;;;;;5014505;27;92532;-69
2022/01/23 16:29:27;;;;;;;21.73;13.38;;;;;;;;;;5012392;28;94089;-70
2022/01/23 16:31:56;;;;;;;23.95;13.82;;;;;;;;;;5015930;28;93314;-70
2022/01/23 16:34:23;;;;;;;24.42;14.68;;;;;;;;;;5012638;28;92488;-71
2022/01/23 16:36:49;;;;;;;21.15;14.07;;;;;;;;;;5014028;28;94719;-70
2022/01/23 16:39:16;;;;;;;21.35;12.98;;;;;;;;;;5011630;28;94873;-70
2022/01/23 16:41:43;;;;;;;23.38;14.38;;;;;;;;;;5019616;28;95655;-70
2022/01/23 16:44:10;;;;;;;24.67;13.38;;;;;;;;;;5032769;27;92498;-71
2022/01/23 16:46:40;;;;;;;22.98;13.50;;;;;;;;;;5029281;27;92358;-70
2022/01/23 16:49:10;;;;;;;23.63;13.45;;;;;;;;;;5017478;28;92441;-70
2022/01/23 16:51:38;;;;;;;24.30;14.00;;;;;;;;;;5022160;27;92462;-70
2022/01/23 16:54:08;;;;;;;21.95;13.68;;;;;;;;;;5028455;28;93129;-70
2022/01/23 16:56:35;;;;;;;24.73;15.98;;;;;;;;;;5009808;28;92739;-69
2022/01/23 16:59:02;;;;;;;29.38;17.40;;;;;;;;;;5032559;27;92442;-70
2022/01/23 17:01:28;;;;;;;29.42;17.20;;;;;;;;;;5015691;27;93411;-70
2022/01/23 17:03:56;;;;;;;24.88;16.60;;;;;;;;;;5016001;28;94865;-69
2022/01/23 17:06:30;;;;;;;25.63;15.05;;;;;;;;;;5032748;27;94376;-70
2022/01/23 17:08:56;;;;;;;28.13;19.05;;;;;;;;;;5029235;27;93486;-71
2022/01/23 17:11:22;;;;;;;37.22;18.42;;;;;;;;;;5010598;28;92351;-71
2022/01/23 17:13:52;;;;;;;38.80;23.40;;;;;;;;;;5020627;28;93210;-70
2022/01/23 17:16:19;;;;;;;28.45;19.55;;;;;;;;;;5012461;28;92443;-70
2022/01/23 17:18:46;;;;;;;21.95;14.50;;;;;;;;;;5026497;28;92465;-69
2022/01/23 17:21:12;;;;;;;25.00;15.35;;;;;;;;;;5026342;27;93028;-70
2022/01/23 17:23:39;;;;;;;25.17;15.88;;;;;;;;;;5013833;28;92768;-70
2022/01/23 17:26:07;;;;;;;28.38;17.33;;;;;;;;;;5018830;28;92481;-70
2022/01/23 17:28:33;;;;;;;29.75;17.58;;;;;;;;;;5029855;27;95057;-70
2022/01/23 17:31:00;;;;;;;25.60;14.27;;;;;;;;;;5032666;27;92979;-70
2022/01/23 17:33:26;;;;;;;22.58;14.63;;;;;;;;;;5026810;27;93174;-70
2022/01/23 17:35:52;;;;;;;24.48;14.98;;;;;;;;;;5012807;28;93352;-70
2022/01/23 17:38:18;;;;;;;25.98;15.50;;;;;;;;;;5012375;28;92468;-70
2022/01/23 17:40:45;;;;;;;26.40;16.08;;;;;;;;;;5012343;28;93886;-70
2022/01/23 17:43:12;;;;;;;26.75;16.17;;;;;;;;;;5015374;28;94311;-70
2022/01/23 17:45:51;;;;;;;29.40;17.95;;;;;;;;;;5031013;27;91983;-69
2022/01/23 17:50:50;;;;;;;28.23;15.40;;;;;;;;;;5012752;28;92382;-69
2022/01/23 17:53:16;;;;;;;24.55;15.32;;;;;;;;;;5017576;28;96120;-70
2022/01/23 17:55:43;;;;;;;26.25;16.40;;;;;;;;;;5024629;27;92961;-70
2022/01/23 17:58:10;;;;;;;25.42;15.98;;;;;;;;;;5012156;28;92419;-69
2022/01/23 18:00:37;;;;;;;28.80;18.10;;;;;;;;;;5012123;28;93415;-69